createdAt,value
2023-03-08T00:01:31.070Z,99183.31
2023-03-08T00:05:32.838Z,99187.47
2023-03-08T00:09:34.427Z,99192.59
2023-03-08T00:13:36.011Z,99213.13
2023-03-08T00:17:39.218Z,99208.34
2023-03-08T00:21:40.866Z,99203.53
2023-03-08T00:25:42.438Z,99188.59
2023-03-08T00:29:43.998Z,99190.47
2023-03-08T00:33:45.529Z,99184.66
2023-03-08T00:37:48.662Z,99171.03
2023-03-08T00:41:51.368Z,99165.06
2023-03-08T00:45:53.328Z,99174.09
2023-03-08T00:49:56.729Z,99166.19
2023-03-08T00:53:58.379Z,99168.47
2023-03-08T00:57:59.924Z,99173.28
2023-03-08T01:02:01.919Z,99164.50
2023-03-08T01:06:12.596Z,99168.34
2023-03-08T01:10:16.383Z,99172.69
2023-03-08T01:14:18.075Z,99176.44
2023-03-08T01:18:19.631Z,99172.44
2023-03-08T01:22:21.180Z,99161.50
2023-03-08T01:26:24.912Z,99164.78
2023-03-08T01:30:30.038Z,99162.34
2023-03-08T01:34:31.596Z,99143.78
2023-03-08T01:38:33.282Z,99126.09
2023-03-08T01:42:37.113Z,99129.59
2023-03-08T01:46:38.649Z,99120.25
2023-03-08T01:51:02.928Z,99121.81
2023-03-08T01:55:07.853Z,99126.88
2023-03-08T01:59:10.420Z,99117.50
2023-03-08T02:03:12.301Z,99109.09
2023-03-08T02:07:14.023Z,99106.72
2023-03-08T02:11:18.868Z,99102.59
2023-03-08T02:15:21.793Z,99096.56
2023-03-08T02:19:39.805Z,99073.59
2023-03-08T02:23:41.352Z,99079.91
2023-03-08T02:27:43.534Z,99072.78
2023-03-08T02:31:45.047Z,99062.44
2023-03-08T02:35:46.728Z,99070.09
2023-03-08T02:39:48.354Z,99064.16
2023-03-08T02:43:49.886Z,99060.78
2023-03-08T02:47:51.967Z,99058.13
2023-03-08T02:51:53.729Z,99061.69
2023-03-08T02:55:55.915Z,99063.50
2023-03-08T02:59:57.628Z,99053.34
2023-03-08T03:04:01.722Z,99055.84
2023-03-08T03:08:03.829Z,99038.88
2023-03-08T03:12:05.917Z,99042.28
2023-03-08T03:16:13.609Z,99031.97
2023-03-08T03:20:15.771Z,99049.03
2023-03-08T03:24:17.572Z,99025.38
2023-03-08T03:28:27.480Z,99028.94
2023-03-08T03:32:29.306Z,99033.19
2023-03-08T03:36:31.149Z,99028.09
2023-03-08T03:40:33.857Z,99023.03
2023-03-08T03:44:38.067Z,99013.78
2023-03-08T03:48:41.010Z,99002.78
2023-03-08T03:52:43.629Z,98989.16
2023-03-08T03:56:45.315Z,98992.47
2023-03-08T04:00:47.724Z,98997.44
2023-03-08T04:04:58.794Z,99000.00
2023-03-08T04:09:07.536Z,98989.00
2023-03-08T04:13:13.157Z,98994.16
2023-03-08T04:17:16.390Z,98994.25
2023-03-08T04:21:28.236Z,98995.91
2023-03-08T04:25:30.863Z,98989.06
2023-03-08T04:29:35.037Z,98984.00
2023-03-08T04:33:37.419Z,98972.03
2023-03-08T04:37:40.190Z,98958.50
2023-03-08T04:41:46.363Z,98958.44
2023-03-08T04:46:01.713Z,98957.41
2023-03-08T04:50:03.927Z,98950.53
2023-03-08T04:54:07.403Z,98941.25
2023-03-08T04:58:13.115Z,98947.25
2023-03-08T05:02:15.005Z,98930.34
2023-03-08T05:06:17.530Z,98924.47
2023-03-08T05:10:21.099Z,98923.69
2023-03-08T05:14:22.764Z,98931.31
2023-03-08T05:18:25.202Z,98932.97
2023-03-08T05:22:26.963Z,98929.56
2023-03-08T05:26:31.658Z,98930.41
2023-03-08T05:30:33.432Z,98932.03
2023-03-08T05:34:35.117Z,98933.78
2023-03-08T05:38:39.594Z,98918.63
2023-03-08T05:42:43.808Z,98918.75
2023-03-08T05:46:46.184Z,98892.47
2023-03-08T05:50:48.046Z,98890.72
2023-03-08T05:54:49.777Z,98891.56
2023-03-08T05:58:55.334Z,98885.69
2023-03-08T06:03:00.693Z,98877.34
2023-03-08T06:07:02.452Z,98879.84
2023-03-08T06:11:10.041Z,98868.88
2023-03-08T06:15:13.134Z,98856.22
2023-03-08T06:19:15.723Z,98848.63
2023-03-08T06:23:18.129Z,98857.19
2023-03-08T06:27:19.855Z,98853.13
2023-03-08T06:31:23.727Z,98843.09
2023-03-08T06:35:26.615Z,98843.19
2023-03-08T06:39:34.114Z,98827.88
2023-03-08T06:43:36.654Z,98827.88
2023-03-08T06:47:38.421Z,98821.09
2023-03-08T06:51:40.412Z,98814.25
2023-03-08T06:55:42.377Z,98814.31
2023-03-08T06:59:44.091Z,98822.72
2023-03-08T07:03:47.926Z,98799.09
2023-03-08T07:07:49.793Z,98798.38
2023-03-08T07:11:51.356Z,98791.75
2023-03-08T07:15:53.022Z,98786.75
2023-03-08T07:19:54.651Z,98784.22
2023-03-08T07:23:56.280Z,98786.69
2023-03-08T07:28:00.261Z,98771.28
2023-03-08T07:32:01.815Z,98754.97
2023-03-08T07:36:03.668Z,98757.44
2023-03-08T07:40:06.699Z,98748.66
2023-03-08T07:44:08.514Z,98745.06
2023-03-08T07:48:10.073Z,98746.72
2023-03-08T07:52:11.654Z,98750.66
2023-03-08T07:56:13.281Z,98738.56
2023-03-08T08:00:15.256Z,98740.19
2023-03-08T08:04:16.984Z,98725.66
2023-03-08T08:08:18.614Z,98711.25
2023-03-08T08:12:20.169Z,98693.66
2023-03-08T08:16:21.970Z,98680.81
2023-03-08T08:20:25.159Z,98670.41
2023-03-08T08:24:27.642Z,98678.78
2023-03-08T08:28:29.485Z,98660.81
2023-03-08T08:32:32.601Z,98649.81
2023-03-08T08:36:34.298Z,98646.56
2023-03-08T08:40:37.007Z,98642.97
2023-03-08T08:44:38.600Z,98649.41
2023-03-08T08:48:40.871Z,98635.88
2023-03-08T08:52:42.547Z,98621.50
2023-03-08T08:56:44.402Z,98606.88
2023-03-08T09:00:46.644Z,98591.59
2023-03-08T09:04:48.340Z,98608.69
2023-03-08T09:08:51.040Z,98599.31
2023-03-08T09:12:52.689Z,98593.22
2023-03-08T09:16:54.398Z,98587.28
2023-03-08T09:20:56.039Z,98575.16
2023-03-08T09:24:57.641Z,98564.19
2023-03-08T09:29:04.837Z,98559.34
2023-03-08T09:33:06.604Z,98551.66
2023-03-08T09:37:09.486Z,98530.59
2023-03-08T09:41:23.134Z,98525.53
2023-03-08T09:45:28.158Z,98505.16
2023-03-08T09:49:32.237Z,98502.22
2023-03-08T09:53:44.602Z,98512.28
2023-03-08T09:57:52.430Z,98514.81
2023-03-08T10:02:12.354Z,98492.06
2023-03-08T10:06:26.083Z,98489.47
2023-03-08T10:10:45.240Z,98475.44
2023-03-08T10:14:50.546Z,98472.25
2023-03-08T10:19:07.126Z,98474.25
2023-03-08T10:23:19.396Z,98470.38
2023-03-08T10:27:31.425Z,98463.75
2023-03-08T10:31:33.815Z,98457.25
2023-03-08T10:35:58.672Z,98455.66
2023-03-08T10:40:05.483Z,98444.72
2023-03-08T10:44:13.480Z,98439.84
2023-03-08T10:48:20.869Z,98431.56
2023-03-08T10:52:27.836Z,98435.03
2023-03-08T10:56:44.793Z,98415.19
2023-03-08T11:00:54.301Z,98405.91
2023-03-08T11:04:59.130Z,98401.75
2023-03-08T11:09:02.866Z,98403.69
2023-03-08T11:13:16.487Z,98400.78
2023-03-08T11:17:32.092Z,98401.09
2023-03-08T11:21:38.634Z,98399.69
2023-03-08T11:26:07.500Z,98397.41
2023-03-08T11:30:20.965Z,98402.34
2023-03-08T11:34:47.814Z,98390.47
2023-03-08T11:39:09.443Z,98394.84
2023-03-08T11:43:19.914Z,98389.03
2023-03-08T11:47:44.978Z,98390.63
2023-03-08T11:52:00.909Z,98390.56
2023-03-08T11:56:12.073Z,98383.06
2023-03-08T12:00:28.155Z,98379.97
2023-03-08T12:04:32.776Z,98363.84
2023-03-08T12:08:39.905Z,98364.56
2023-03-08T12:12:50.970Z,98361.31
2023-03-08T12:16:56.293Z,98363.91
2023-03-08T12:21:14.491Z,98357.28
2023-03-08T12:25:22.157Z,98368.41
2023-03-08T12:29:34.841Z,98355.81
2023-03-08T12:33:36.803Z,98325.53
2023-03-08T12:37:39.265Z,98323.28
2023-03-08T12:41:40.879Z,98324.56
2023-03-08T12:46:06.927Z,98327.38
2023-03-08T12:50:16.186Z,98322.00
2023-03-08T12:54:23.376Z,98312.81
2023-03-08T12:58:25.026Z,98308.59
2023-03-08T13:02:32.491Z,98318.13
2023-03-08T13:06:46.166Z,98317.38
2023-03-08T13:10:50.731Z,98317.28
2023-03-08T13:15:10.908Z,98324.94
2023-03-08T13:19:20.762Z,98321.59
2023-03-08T13:23:32.572Z,98306.28
2023-03-08T13:28:11.445Z,98313.94
2023-03-08T13:32:18.690Z,98312.31
2023-03-08T13:36:39.048Z,98301.38
2023-03-08T13:40:51.951Z,98313.41
2023-03-08T13:45:06.016Z,98316.06
2023-03-08T13:49:14.254Z,98326.31
2023-03-08T13:53:20.311Z,98333.13
2023-03-08T13:57:36.420Z,98327.97
2023-03-08T14:01:47.545Z,98307.50
2023-03-08T14:05:50.230Z,98293.88
2023-03-08T14:09:51.912Z,98294.81
2023-03-08T14:13:55.657Z,98283.81
2023-03-08T14:17:57.879Z,98295.78
2023-03-08T14:22:09.742Z,98291.63
2023-03-08T14:26:34.332Z,98295.97
2023-03-08T14:30:46.872Z,98297.72
2023-03-08T14:34:49.298Z,98294.38
2023-03-08T14:38:51.161Z,98288.34
2023-03-08T14:42:54.999Z,98290.88
2023-03-08T14:46:59.139Z,98265.34
2023-03-08T14:51:26.630Z,98263.69
2023-03-08T14:55:34.038Z,98252.56
2023-03-08T14:59:40.077Z,98251.72
2023-03-08T15:03:41.656Z,98256.88
2023-03-08T15:07:44.677Z,98251.81
2023-03-08T15:11:48.983Z,98239.97
2023-03-08T15:15:51.198Z,98232.31
2023-03-08T15:19:52.742Z,98232.34
2023-03-08T15:23:54.766Z,98228.13
2023-03-08T15:27:56.446Z,98224.72
2023-03-08T15:31:59.223Z,98231.59
2023-03-08T15:36:00.843Z,98221.41
2023-03-08T15:40:02.774Z,98220.56
2023-03-08T15:44:04.356Z,98201.84
2023-03-08T15:48:11.420Z,98199.28
2023-03-08T15:52:12.966Z,98191.59
2023-03-08T15:56:15.136Z,98219.72
2023-03-08T16:00:19.126Z,98212.03
2023-03-08T16:04:21.054Z,98230.69
2023-03-08T16:08:25.028Z,98230.53
2023-03-08T16:12:26.661Z,98238.16
2023-03-08T16:16:43.978Z,98236.38
2023-03-08T16:20:46.326Z,98230.34
2023-03-08T16:24:48.584Z,98236.28
2023-03-08T16:28:50.135Z,98231.16
2023-03-08T16:32:52.804Z,98215.81
2023-03-08T16:36:55.159Z,98231.13
2023-03-08T16:41:11.645Z,98221.75
2023-03-08T16:45:16.315Z,98218.38
2023-03-08T16:49:19.822Z,98223.44
2023-03-08T16:53:21.726Z,98231.03
2023-03-08T16:57:23.355Z,98231.03
2023-03-08T17:01:25.549Z,98219.94
2023-03-08T17:05:27.331Z,98215.63
2023-03-08T17:09:28.976Z,98215.66
2023-03-08T17:13:31.715Z,98213.97
2023-03-08T17:17:33.246Z,98220.81
2023-03-08T17:21:39.094Z,98217.47
2023-03-08T17:25:41.325Z,98211.53
2023-03-08T17:29:42.836Z,98215.84
2023-03-08T17:33:44.805Z,98213.31
2023-03-08T17:37:46.764Z,98211.63
2023-03-08T17:41:48.392Z,98209.06
2023-03-08T17:46:08.635Z,98192.94
2023-03-08T17:50:13.187Z,98194.66
2023-03-08T17:54:14.829Z,98198.06
2023-03-08T17:58:16.534Z,98213.38
2023-03-08T18:02:19.059Z,98222.75
2023-03-08T18:06:41.029Z,98228.69
2023-03-08T18:10:42.674Z,98224.44
2023-03-08T18:14:46.262Z,98236.38
2023-03-08T18:18:49.709Z,98238.09
2023-03-08T18:22:52.180Z,98224.44
2023-03-08T18:26:53.956Z,98222.75
2023-03-08T18:30:55.600Z,98216.72
2023-03-08T18:34:57.437Z,98218.41
2023-03-08T18:38:59.074Z,98226.09
2023-03-08T18:43:00.749Z,98222.69
2023-03-08T18:47:02.532Z,98228.63
2023-03-08T18:51:04.340Z,98224.34
2023-03-08T18:55:06.214Z,98215.81
2023-03-08T18:59:08.199Z,98217.53
2023-03-08T19:03:09.792Z,98214.13
2023-03-08T19:07:13.030Z,98204.78
2023-03-08T19:11:21.779Z,98197.97
2023-03-08T19:15:23.443Z,98214.13
2023-03-08T19:19:25.842Z,98223.50
2023-03-08T19:23:27.394Z,98219.28
2023-03-08T19:27:28.972Z,98223.53
2023-03-08T19:31:30.839Z,98240.53
2023-03-08T19:35:34.310Z,98242.22
2023-03-08T19:39:38.029Z,98255.84
2023-03-08T19:43:40.076Z,98254.94
2023-03-08T19:47:41.969Z,98248.19
2023-03-08T19:51:47.364Z,98258.41
2023-03-08T19:55:53.209Z,98269.44
2023-03-08T19:59:57.664Z,98249.88
2023-03-08T20:03:59.630Z,98228.63
2023-03-08T20:08:01.203Z,98256.72
2023-03-08T20:12:02.882Z,98240.56
2023-03-08T20:16:04.816Z,98249.09
2023-03-08T20:20:07.315Z,98250.81
2023-03-08T20:24:09.035Z,98264.41
2023-03-08T20:28:11.186Z,98249.94
2023-03-08T20:32:13.526Z,98246.53
2023-03-08T20:36:15.596Z,98238.88
2023-03-08T20:40:18.001Z,98239.69
2023-03-08T20:44:19.526Z,98237.94
2023-03-08T20:48:21.162Z,98242.97
2023-03-08T20:52:22.781Z,98242.97
2023-03-08T20:56:25.942Z,98239.56
2023-03-08T21:00:27.494Z,98237.91
2023-03-08T21:04:29.826Z,98239.56
2023-03-08T21:08:31.446Z,98229.41
2023-03-08T21:12:33.021Z,98236.22
2023-03-08T21:16:34.852Z,98228.56
2023-03-08T21:20:38.118Z,98215.78
2023-03-08T21:24:39.719Z,98206.44
2023-03-08T21:28:41.346Z,98223.50
2023-03-08T21:32:43.008Z,98215.00
2023-03-08T21:36:44.925Z,98214.19
2023-03-08T21:40:46.464Z,98232.09
2023-03-08T21:44:48.044Z,98226.16
2023-03-08T21:48:50.140Z,98233.81
2023-03-08T21:52:51.918Z,98222.78
2023-03-08T21:56:53.527Z,98221.91
2023-03-08T22:00:55.152Z,98215.97
2023-03-08T22:04:57.271Z,98217.69
2023-03-08T22:08:58.888Z,98208.34
2023-03-08T22:13:01.097Z,98203.25
2023-03-08T22:17:03.269Z,98199.00
2023-03-08T22:21:05.160Z,98192.19
2023-03-08T22:25:07.648Z,98180.25
2023-03-08T22:29:09.241Z,98173.41
2023-03-08T22:33:12.081Z,98172.53
2023-03-08T22:37:13.691Z,98181.91
2023-03-08T22:41:24.632Z,98174.25
2023-03-08T22:45:26.361Z,98163.22
2023-03-08T22:49:28.008Z,98146.19
2023-03-08T22:53:29.692Z,98132.59
2023-03-08T22:57:31.465Z,98117.28
2023-03-08T23:01:33.384Z,98103.69
2023-03-08T23:05:35.107Z,98089.25
2023-03-08T23:09:36.892Z,98076.50
2023-03-08T23:13:39.460Z,98066.28
2023-03-08T23:17:41.097Z,98062.88
2023-03-08T23:21:44.463Z,98051.81
2023-03-08T23:25:46.150Z,98057.78
2023-03-08T23:29:47.874Z,98046.69
2023-03-08T23:33:50.258Z,98053.44
2023-03-08T23:37:52.082Z,98055.13
2023-03-08T23:41:53.603Z,98067.13
2023-03-08T23:45:55.272Z,98085.00
2023-03-08T23:49:56.843Z,98090.91
2023-03-08T23:54:01.299Z,98099.41
2023-03-08T23:58:03.174Z,98102.81
